RNA402 VTBS-VNKT
Flight info
| Callsign | RNA402 |
|---|---|
| Flight time | N/A |
| Altitude | 40000 |
| Route | TARED1F TARED P646 BETNO G463 BGO L507 CEA R581 ROMEO ROMEO3R |
| Aircraft | A332/H-SDE3GHIJ2J3J5M1RVWXY/LB2D1 |
Departure
| Time | N/A |
|---|---|
| Airport | Suvarnabhumi Airport (VTBS) |
Arrival
| Time | 2026-05-08 04:35 |
|---|---|
| Airport | Tribhuvan International Airport (VNKT) |
| Time | Latitude | Longitude | Altitude | Speed | Heading |
|---|---|---|---|---|---|
| 2026-05-08 01:45 | 14.03208 | 100.26880 | 18976 ft | 404 kts | 298° |
| 2026-05-08 01:45 | 14.04546 | 100.24327 | 19510 ft | 407 kts | 298° |
| 2026-05-08 01:46 | 14.05898 | 100.21747 | 20045 ft | 411 kts | 298° |
| 2026-05-08 01:46 | 14.07260 | 100.19148 | 20591 ft | 414 kts | 298° |
| 2026-05-08 01:46 | 14.08634 | 100.16527 | 21112 ft | 417 kts | 298° |
| 2026-05-08 01:46 | 14.10016 | 100.13886 | 21627 ft | 420 kts | 298° |
| 2026-05-08 01:47 | 14.11409 | 100.11228 | 22129 ft | 424 kts | 298° |
| 2026-05-08 01:47 | 14.12814 | 100.08543 | 22637 ft | 427 kts | 298° |
| 2026-05-08 01:47 | 14.14231 | 100.05836 | 23125 ft | 431 kts | 298° |
| 2026-05-08 01:48 | 14.17077 | 100.00392 | 23999 ft | 437 kts | 298° |
| 2026-05-08 01:48 | 14.18523 | 99.97625 | 24442 ft | 439 kts | 298° |
| 2026-05-08 01:48 | 14.19975 | 99.94844 | 24883 ft | 441 kts | 298° |
| 2026-05-08 01:48 | 14.21433 | 99.92053 | 25325 ft | 443 kts | 298° |
| 2026-05-08 01:49 | 14.22896 | 99.89248 | 25743 ft | 445 kts | 298° |
| 2026-05-08 01:49 | 14.24368 | 99.86431 | 26174 ft | 447 kts | 298° |
| 2026-05-08 01:49 | 14.25824 | 99.83638 | 26574 ft | 449 kts | 298° |
| 2026-05-08 01:49 | 14.27310 | 99.80787 | 26943 ft | 452 kts | 298° |
| 2026-05-08 01:50 | 14.28805 | 99.77919 | 27293 ft | 456 kts | 298° |
| 2026-05-08 01:50 | 14.30313 | 99.75025 | 27698 ft | 458 kts | 299° |
| 2026-05-08 01:50 | 14.31825 | 99.72122 | 28086 ft | 460 kts | 299° |
| 2026-05-08 01:50 | 14.33341 | 99.69207 | 28486 ft | 463 kts | 299° |
| 2026-05-08 01:51 | 14.34846 | 99.66314 | 28898 ft | 465 kts | 299° |
| 2026-05-08 01:51 | 14.36381 | 99.63363 | 29282 ft | 467 kts | 299° |
| 2026-05-08 01:51 | 14.37919 | 99.60408 | 29663 ft | 469 kts | 299° |
| 2026-05-08 01:51 | 14.39463 | 99.57440 | 30103 ft | 469 kts | 299° |
| 2026-05-08 01:52 | 14.41003 | 99.54478 | 30461 ft | 469 kts | 299° |
| 2026-05-08 01:52 | 14.42550 | 99.51502 | 30767 ft | 472 kts | 299° |
| 2026-05-08 01:52 | 14.44103 | 99.48512 | 31058 ft | 474 kts | 299° |
| 2026-05-08 01:52 | 14.45665 | 99.45504 | 31361 ft | 476 kts | 299° |
| 2026-05-08 01:53 | 14.47237 | 99.42476 | 31589 ft | 480 kts | 299° |
| 2026-05-08 01:53 | 14.48818 | 99.39426 | 31851 ft | 483 kts | 299° |
| 2026-05-08 01:53 | 14.50404 | 99.36367 | 32181 ft | 485 kts | 299° |
| 2026-05-08 01:53 | 14.51996 | 99.33295 | 32536 ft | 485 kts | 299° |
| 2026-05-08 01:54 | 14.53581 | 99.30232 | 33010 ft | 483 kts | 299° |
| 2026-05-08 01:54 | 14.55161 | 99.27180 | 33470 ft | 481 kts | 299° |
| 2026-05-08 01:54 | 14.56736 | 99.24138 | 33898 ft | 479 kts | 299° |
| 2026-05-08 01:54 | 14.58303 | 99.21110 | 34290 ft | 477 kts | 299° |
| 2026-05-08 01:55 | 14.59867 | 99.18082 | 34639 ft | 477 kts | 299° |
| 2026-05-08 01:55 | 14.61429 | 99.15061 | 34965 ft | 477 kts | 299° |
| 2026-05-08 01:55 | 14.62991 | 99.12040 | 35322 ft | 476 kts | 299° |
| 2026-05-08 01:55 | 14.64528 | 99.09068 | 35670 ft | 475 kts | 299° |
| 2026-05-08 01:56 | 14.66085 | 99.06056 | 35955 ft | 476 kts | 298° |
| 2026-05-08 01:56 | 14.67645 | 99.03037 | 36219 ft | 477 kts | 298° |
| 2026-05-08 01:56 | 14.69205 | 99.00013 | 36578 ft | 476 kts | 298° |
| 2026-05-08 01:56 | 14.70758 | 98.97001 | 36931 ft | 475 kts | 298° |
| 2026-05-08 01:57 | 14.72310 | 98.93991 | 37263 ft | 474 kts | 298° |
| 2026-05-08 01:57 | 14.73858 | 98.90987 | 37625 ft | 473 kts | 298° |
| 2026-05-08 01:57 | 14.75400 | 98.87993 | 37971 ft | 472 kts | 298° |
| 2026-05-08 01:57 | 14.76420 | 98.86013 | 38207 ft | 471 kts | 298° |
| 2026-05-08 01:58 | 14.77958 | 98.83026 | 38523 ft | 471 kts | 298° |
| 2026-05-08 01:58 | 14.79498 | 98.80035 | 38833 ft | 469 kts | 298° |
| 2026-05-08 01:58 | 14.81027 | 98.77062 | 39106 ft | 468 kts | 298° |
| 2026-05-08 01:58 | 14.83047 | 98.73133 | 39497 ft | 465 kts | 298° |
| 2026-05-08 01:59 | 14.84071 | 98.71142 | 39721 ft | 463 kts | 298° |
| 2026-05-08 01:59 | 14.85583 | 98.68201 | 39921 ft | 464 kts | 298° |
| 2026-05-08 01:59 | 14.88617 | 98.62295 | 39947 ft | 466 kts | 297° |
| 2026-05-08 02:00 | 14.91648 | 98.56353 | 39949 ft | 468 kts | 298° |
| 2026-05-08 02:00 | 14.94673 | 98.50453 | 39950 ft | 466 kts | 298° |
| 2026-05-08 02:01 | 14.97726 | 98.44519 | 39939 ft | 467 kts | 298° |
| 2026-05-08 02:01 | 15.00774 | 98.38577 | 39938 ft | 467 kts | 298° |
| 2026-05-08 02:02 | 15.03796 | 98.32672 | 39934 ft | 467 kts | 298° |
| 2026-05-08 02:02 | 15.06841 | 98.26718 | 39938 ft | 470 kts | 298° |
| 2026-05-08 02:03 | 15.10369 | 98.21045 | 39932 ft | 468 kts | 311° |
| 2026-05-08 02:03 | 15.15154 | 98.16517 | 39925 ft | 466 kts | 321° |
| 2026-05-08 02:04 | 15.20256 | 98.12370 | 39924 ft | 465 kts | 323° |
| 2026-05-08 02:04 | 15.25405 | 98.08301 | 39931 ft | 466 kts | 322° |
| 2026-05-08 02:05 | 15.30515 | 98.04225 | 39925 ft | 465 kts | 322° |
| 2026-05-08 02:05 | 15.35657 | 98.00100 | 39923 ft | 468 kts | 323° |
| 2026-05-08 02:06 | 15.40797 | 97.95956 | 39920 ft | 467 kts | 322° |
| 2026-05-08 02:06 | 15.45886 | 97.91838 | 39918 ft | 466 kts | 322° |
| 2026-05-08 02:07 | 15.51011 | 97.87688 | 39909 ft | 468 kts | 322° |
| 2026-05-08 02:07 | 15.56141 | 97.83540 | 39911 ft | 467 kts | 322° |
| 2026-05-08 02:08 | 15.61264 | 97.79398 | 39913 ft | 466 kts | 322° |
| 2026-05-08 02:08 | 15.66378 | 97.75261 | 39911 ft | 466 kts | 322° |
| 2026-05-08 02:09 | 15.71459 | 97.71151 | 39905 ft | 465 kts | 322° |
| 2026-05-08 02:09 | 15.76573 | 97.67011 | 39906 ft | 466 kts | 322° |
| 2026-05-08 02:10 | 15.81683 | 97.62842 | 39905 ft | 467 kts | 322° |
| 2026-05-08 02:10 | 15.86808 | 97.58690 | 39908 ft | 466 kts | 322° |
| 2026-05-08 02:11 | 15.91906 | 97.54576 | 39906 ft | 468 kts | 323° |
| 2026-05-08 02:11 | 15.97207 | 97.50615 | 39903 ft | 469 kts | 325° |
| 2026-05-08 02:12 | 16.02580 | 97.46762 | 39902 ft | 470 kts | 325° |
| 2026-05-08 02:12 | 16.07949 | 97.42909 | 39905 ft | 470 kts | 325° |
| 2026-05-08 02:13 | 16.13317 | 97.39029 | 39903 ft | 468 kts | 325° |
| 2026-05-08 02:13 | 16.18670 | 97.35114 | 39903 ft | 470 kts | 324° |
| 2026-05-08 02:14 | 16.24022 | 97.31194 | 39902 ft | 470 kts | 324° |
| 2026-05-08 02:14 | 16.29373 | 97.27289 | 39901 ft | 469 kts | 324° |
| 2026-05-08 02:15 | 16.34692 | 97.23416 | 39901 ft | 470 kts | 324° |
| 2026-05-08 02:15 | 16.40045 | 97.19504 | 39900 ft | 470 kts | 324° |
| 2026-05-08 02:16 | 16.45389 | 97.15585 | 39900 ft | 469 kts | 324° |
| 2026-05-08 02:16 | 16.50736 | 97.11671 | 39897 ft | 470 kts | 324° |
| 2026-05-08 02:17 | 16.56084 | 97.07762 | 39897 ft | 469 kts | 324° |
| 2026-05-08 02:17 | 16.61419 | 97.03844 | 39899 ft | 467 kts | 324° |
| 2026-05-08 02:18 | 16.66724 | 96.99960 | 39895 ft | 471 kts | 323° |
| 2026-05-08 02:18 | 16.72074 | 96.96028 | 39897 ft | 471 kts | 324° |
| 2026-05-08 02:19 | 16.77439 | 96.92107 | 39897 ft | 469 kts | 324° |
| 2026-05-08 02:19 | 16.82776 | 96.88194 | 39899 ft | 469 kts | 324° |
| 2026-05-08 02:20 | 16.88124 | 96.84255 | 39897 ft | 470 kts | 324° |
| 2026-05-08 02:20 | 16.93468 | 96.80325 | 39894 ft | 468 kts | 324° |
| 2026-05-08 02:21 | 16.98756 | 96.76428 | 39894 ft | 467 kts | 323° |
| 2026-05-08 02:21 | 17.04022 | 96.72539 | 39894 ft | 462 kts | 323° |
| 2026-05-08 02:22 | 17.09288 | 96.68657 | 39892 ft | 464 kts | 323° |
| 2026-05-08 02:22 | 17.14565 | 96.64767 | 39892 ft | 464 kts | 323° |
| 2026-05-08 02:23 | 17.19843 | 96.60872 | 39894 ft | 464 kts | 323° |
| 2026-05-08 02:23 | 17.25085 | 96.56999 | 39892 ft | 464 kts | 323° |
| 2026-05-08 02:24 | 17.30305 | 96.53027 | 39893 ft | 463 kts | 317° |
| 2026-05-08 02:24 | 17.34655 | 96.48112 | 39892 ft | 459 kts | 307° |
| 2026-05-08 02:25 | 17.38570 | 96.42819 | 39892 ft | 460 kts | 305° |
| 2026-05-08 02:25 | 17.42408 | 96.37443 | 39895 ft | 460 kts | 305° |
| 2026-05-08 02:26 | 17.46249 | 96.32066 | 39892 ft | 461 kts | 305° |
| 2026-05-08 02:26 | 17.50104 | 96.26700 | 39892 ft | 461 kts | 305° |
| 2026-05-08 02:27 | 17.53962 | 96.21343 | 39895 ft | 461 kts | 305° |
| 2026-05-08 02:27 | 17.57800 | 96.16011 | 39895 ft | 461 kts | 305° |
| 2026-05-08 02:28 | 17.61662 | 96.10640 | 39892 ft | 461 kts | 305° |
| 2026-05-08 02:28 | 17.65524 | 96.05263 | 39900 ft | 461 kts | 305° |
| 2026-05-08 02:29 | 17.69354 | 95.99927 | 39895 ft | 460 kts | 304° |
| 2026-05-08 02:29 | 17.73202 | 95.94560 | 39895 ft | 460 kts | 304° |
| 2026-05-08 02:30 | 17.77049 | 95.89191 | 39895 ft | 460 kts | 304° |
| 2026-05-08 02:30 | 17.80892 | 95.83824 | 39892 ft | 460 kts | 304° |
| 2026-05-08 02:31 | 17.84735 | 95.78451 | 39889 ft | 460 kts | 304° |
| 2026-05-08 02:31 | 17.88574 | 95.73081 | 39889 ft | 459 kts | 304° |
| 2026-05-08 02:32 | 17.92387 | 95.67743 | 39892 ft | 459 kts | 304° |
| 2026-05-08 02:32 | 17.96220 | 95.62371 | 39889 ft | 459 kts | 304° |
| 2026-05-08 02:33 | 18.00051 | 95.56998 | 39886 ft | 459 kts | 304° |
| 2026-05-08 02:33 | 18.03877 | 95.51629 | 39887 ft | 458 kts | 304° |
| 2026-05-08 02:34 | 18.07671 | 95.46299 | 39889 ft | 457 kts | 304° |
| 2026-05-08 02:34 | 18.11483 | 95.40940 | 39886 ft | 457 kts | 304° |
| 2026-05-08 02:35 | 18.15292 | 95.35580 | 39889 ft | 457 kts | 304° |
| 2026-05-08 02:35 | 18.19097 | 95.30222 | 39892 ft | 458 kts | 304° |
| 2026-05-08 02:36 | 18.22906 | 95.24853 | 39892 ft | 458 kts | 304° |
| 2026-05-08 02:36 | 18.26719 | 95.19475 | 39892 ft | 458 kts | 304° |
| 2026-05-08 02:37 | 18.30518 | 95.14090 | 39905 ft | 458 kts | 303° |
| 2026-05-08 02:37 | 18.34185 | 95.08605 | 39905 ft | 457 kts | 302° |
| 2026-05-08 02:38 | 18.37788 | 95.03089 | 39906 ft | 457 kts | 301° |
| 2026-05-08 02:38 | 18.41402 | 94.97566 | 39909 ft | 458 kts | 301° |
| 2026-05-08 02:39 | 18.45002 | 94.92084 | 39908 ft | 459 kts | 301° |
| 2026-05-08 02:39 | 18.48641 | 94.86548 | 39912 ft | 459 kts | 302° |
| 2026-05-08 02:40 | 18.52289 | 94.80998 | 39915 ft | 460 kts | 301° |
| 2026-05-08 02:40 | 18.55926 | 94.75458 | 39913 ft | 460 kts | 301° |
| 2026-05-08 02:41 | 18.59601 | 94.69928 | 39916 ft | 460 kts | 302° |
| 2026-05-08 02:41 | 18.63339 | 94.64495 | 39915 ft | 460 kts | 303° |
| 2026-05-08 02:42 | 18.67120 | 94.59034 | 39914 ft | 460 kts | 303° |
| 2026-05-08 02:42 | 18.70891 | 94.53568 | 39912 ft | 461 kts | 303° |
| 2026-05-08 02:43 | 18.74651 | 94.48097 | 39905 ft | 460 kts | 303° |
| 2026-05-08 02:43 | 18.78408 | 94.42620 | 39906 ft | 460 kts | 303° |
| 2026-05-08 02:44 | 18.82142 | 94.37174 | 39898 ft | 460 kts | 303° |
| 2026-05-08 02:44 | 18.85891 | 94.31701 | 39898 ft | 460 kts | 303° |
| 2026-05-08 02:45 | 18.89005 | 94.27152 | 39898 ft | 460 kts | 303° |
| 2026-05-08 02:45 | 18.92755 | 94.21671 | 39891 ft | 460 kts | 303° |
| 2026-05-08 02:46 | 18.96499 | 94.16193 | 39892 ft | 459 kts | 303° |
| 2026-05-08 02:46 | 19.00219 | 94.10745 | 39889 ft | 456 kts | 303° |
| 2026-05-08 02:47 | 19.03930 | 94.05305 | 39887 ft | 456 kts | 303° |
| 2026-05-08 02:47 | 19.07640 | 93.99860 | 39887 ft | 456 kts | 303° |
| 2026-05-08 02:48 | 19.11337 | 93.94433 | 39885 ft | 453 kts | 302° |
| 2026-05-08 02:48 | 19.14987 | 93.89069 | 39886 ft | 451 kts | 302° |
| 2026-05-08 02:49 | 19.18651 | 93.83679 | 39887 ft | 451 kts | 302° |
| 2026-05-08 02:49 | 19.22313 | 93.78287 | 39887 ft | 451 kts | 302° |
| 2026-05-08 02:50 | 19.25957 | 93.72916 | 39888 ft | 452 kts | 302° |
| 2026-05-08 02:50 | 19.29628 | 93.67502 | 39889 ft | 452 kts | 302° |
| 2026-05-08 02:51 | 19.33295 | 93.62088 | 39889 ft | 452 kts | 302° |
| 2026-05-08 02:51 | 19.36960 | 93.56674 | 39885 ft | 452 kts | 302° |
| 2026-05-08 02:52 | 19.40626 | 93.51253 | 39888 ft | 452 kts | 302° |
| 2026-05-08 02:52 | 19.44263 | 93.45870 | 39888 ft | 452 kts | 302° |
| 2026-05-08 02:53 | 19.47927 | 93.40444 | 39883 ft | 451 kts | 302° |
| 2026-05-08 02:53 | 19.51584 | 93.35021 | 39881 ft | 451 kts | 302° |
| 2026-05-08 02:54 | 19.55236 | 93.29600 | 39880 ft | 451 kts | 302° |
| 2026-05-08 02:54 | 19.58867 | 93.24207 | 39881 ft | 451 kts | 302° |
| 2026-05-08 02:55 | 19.64338 | 93.16072 | 39886 ft | 451 kts | 302° |
| 2026-05-08 02:56 | 19.67984 | 93.10643 | 39888 ft | 451 kts | 302° |
| 2026-05-08 02:56 | 19.71627 | 93.05215 | 39893 ft | 451 kts | 302° |
| 2026-05-08 02:57 | 19.75270 | 92.99783 | 39891 ft | 450 kts | 301° |
| 2026-05-08 02:57 | 19.78883 | 92.94390 | 39893 ft | 450 kts | 301° |
| 2026-05-08 02:58 | 19.82498 | 92.88991 | 39887 ft | 447 kts | 301° |
| 2026-05-08 02:58 | 19.86100 | 92.83604 | 39889 ft | 447 kts | 301° |
| 2026-05-08 02:59 | 19.89698 | 92.78216 | 39890 ft | 447 kts | 301° |
| 2026-05-08 02:59 | 19.93302 | 92.72817 | 39889 ft | 447 kts | 301° |
| 2026-05-08 03:00 | 19.96900 | 92.67422 | 39889 ft | 447 kts | 301° |
| 2026-05-08 03:00 | 20.00472 | 92.62061 | 39892 ft | 446 kts | 301° |
| 2026-05-08 03:01 | 20.04057 | 92.56676 | 39892 ft | 445 kts | 301° |
| 2026-05-08 03:01 | 20.07634 | 92.51298 | 39887 ft | 445 kts | 301° |
| 2026-05-08 03:02 | 20.11209 | 92.45917 | 39887 ft | 445 kts | 301° |
| 2026-05-08 03:02 | 20.14781 | 92.40536 | 39888 ft | 444 kts | 301° |
| 2026-05-08 03:03 | 20.18341 | 92.35170 | 39884 ft | 443 kts | 301° |
| 2026-05-08 03:03 | 20.21870 | 92.29844 | 39885 ft | 443 kts | 300° |
| 2026-05-08 03:04 | 20.25426 | 92.24472 | 39892 ft | 443 kts | 301° |
| 2026-05-08 03:04 | 20.28982 | 92.19095 | 39890 ft | 443 kts | 301° |
| 2026-05-08 03:05 | 20.32537 | 92.13715 | 39893 ft | 443 kts | 300° |
| 2026-05-08 03:05 | 20.36068 | 92.08367 | 39893 ft | 443 kts | 300° |
| 2026-05-08 03:06 | 20.39617 | 92.02987 | 39887 ft | 443 kts | 300° |
| 2026-05-08 03:06 | 20.43158 | 91.97596 | 39892 ft | 443 kts | 300° |
| 2026-05-08 03:07 | 20.46661 | 91.92190 | 39903 ft | 443 kts | 300° |
| 2026-05-08 03:07 | 20.50158 | 91.86775 | 39896 ft | 442 kts | 300° |
| 2026-05-08 03:08 | 20.53623 | 91.81411 | 39901 ft | 442 kts | 300° |
| 2026-05-08 03:08 | 20.57109 | 91.76012 | 39897 ft | 442 kts | 300° |
| 2026-05-08 03:09 | 20.60597 | 91.70607 | 39896 ft | 442 kts | 300° |
| 2026-05-08 03:09 | 20.64084 | 91.65199 | 39884 ft | 442 kts | 300° |
| 2026-05-08 03:10 | 20.67567 | 91.59792 | 39898 ft | 442 kts | 300° |
| 2026-05-08 03:10 | 20.71048 | 91.54382 | 39899 ft | 442 kts | 300° |
| 2026-05-08 03:11 | 20.74508 | 91.49002 | 39890 ft | 441 kts | 300° |
| 2026-05-08 03:11 | 20.77978 | 91.43601 | 39907 ft | 440 kts | 300° |
| 2026-05-08 03:12 | 20.81436 | 91.38210 | 39906 ft | 439 kts | 300° |
| 2026-05-08 03:12 | 20.84879 | 91.32843 | 39896 ft | 436 kts | 300° |
| 2026-05-08 03:13 | 20.88303 | 91.27497 | 39896 ft | 435 kts | 300° |
| 2026-05-08 03:13 | 20.91720 | 91.22155 | 39898 ft | 435 kts | 300° |
| 2026-05-08 03:14 | 20.95115 | 91.16843 | 39901 ft | 435 kts | 300° |
| 2026-05-08 03:14 | 20.98535 | 91.11488 | 39904 ft | 435 kts | 299° |
| 2026-05-08 03:15 | 21.01949 | 91.06138 | 39901 ft | 435 kts | 299° |
| 2026-05-08 03:15 | 21.05366 | 91.00779 | 39901 ft | 435 kts | 299° |
| 2026-05-08 03:16 | 21.08750 | 90.95465 | 39905 ft | 435 kts | 299° |
| 2026-05-08 03:16 | 21.12158 | 90.90110 | 39905 ft | 435 kts | 299° |
| 2026-05-08 03:17 | 21.15565 | 90.84749 | 39911 ft | 435 kts | 299° |
| 2026-05-08 03:17 | 21.18963 | 90.79400 | 39907 ft | 433 kts | 299° |
| 2026-05-08 03:18 | 21.22354 | 90.74055 | 39910 ft | 433 kts | 299° |
| 2026-05-08 03:18 | 21.25741 | 90.68711 | 39907 ft | 433 kts | 299° |
| 2026-05-08 03:19 | 21.29124 | 90.63368 | 39908 ft | 433 kts | 299° |
| 2026-05-08 03:19 | 21.32488 | 90.58051 | 39910 ft | 433 kts | 299° |
| 2026-05-08 03:20 | 21.35869 | 90.52703 | 39912 ft | 433 kts | 299° |
| 2026-05-08 03:20 | 21.39253 | 90.47350 | 39910 ft | 433 kts | 299° |
| 2026-05-08 03:21 | 21.42631 | 90.42002 | 39913 ft | 433 kts | 299° |
| 2026-05-08 03:21 | 21.46009 | 90.36648 | 39914 ft | 433 kts | 299° |
| 2026-05-08 03:22 | 21.49385 | 90.31292 | 39915 ft | 432 kts | 298° |
| 2026-05-08 03:22 | 21.52728 | 90.25984 | 39918 ft | 431 kts | 298° |
| 2026-05-08 03:23 | 21.56086 | 90.20646 | 39915 ft | 431 kts | 298° |
| 2026-05-08 03:23 | 21.59445 | 90.15300 | 39921 ft | 431 kts | 298° |
| 2026-05-08 03:24 | 21.62801 | 90.09956 | 39921 ft | 431 kts | 298° |
| 2026-05-08 03:24 | 21.66158 | 90.04604 | 39916 ft | 431 kts | 298° |
| 2026-05-08 03:25 | 21.69511 | 89.99254 | 39932 ft | 431 kts | 298° |
| 2026-05-08 03:25 | 21.72843 | 89.93931 | 39922 ft | 431 kts | 298° |
| 2026-05-08 03:26 | 21.76197 | 89.88568 | 39922 ft | 431 kts | 298° |
| 2026-05-08 03:26 | 21.79543 | 89.83213 | 39920 ft | 431 kts | 298° |
| 2026-05-08 03:27 | 21.82890 | 89.77851 | 39929 ft | 431 kts | 298° |
| 2026-05-08 03:27 | 21.86230 | 89.72496 | 39922 ft | 430 kts | 298° |
| 2026-05-08 03:28 | 21.89547 | 89.67172 | 39919 ft | 430 kts | 298° |
| 2026-05-08 03:28 | 21.92894 | 89.61794 | 39929 ft | 430 kts | 298° |
| 2026-05-08 03:29 | 21.96207 | 89.56465 | 39924 ft | 431 kts | 298° |
| 2026-05-08 03:29 | 21.99538 | 89.51103 | 39922 ft | 430 kts | 298° |
| 2026-05-08 03:30 | 22.04533 | 89.43050 | 39930 ft | 430 kts | 298° |
| 2026-05-08 03:31 | 22.11183 | 89.32312 | 39931 ft | 430 kts | 298° |
| 2026-05-08 03:32 | 22.16153 | 89.24272 | 39929 ft | 430 kts | 298° |
| 2026-05-08 03:32 | 22.19478 | 89.18887 | 39928 ft | 431 kts | 298° |
| 2026-05-08 03:33 | 22.22242 | 89.14405 | 39932 ft | 431 kts | 298° |
| 2026-05-08 03:33 | 22.25568 | 89.09010 | 39926 ft | 431 kts | 298° |
| 2026-05-08 03:34 | 22.28889 | 89.03616 | 39934 ft | 431 kts | 298° |
| 2026-05-08 03:34 | 22.32278 | 88.98266 | 39933 ft | 432 kts | 300° |
| 2026-05-08 03:35 | 22.35793 | 88.92983 | 39933 ft | 433 kts | 300° |
| 2026-05-08 03:35 | 22.39818 | 88.86965 | 39935 ft | 433 kts | 300° |
| 2026-05-08 03:36 | 22.43314 | 88.81704 | 39937 ft | 433 kts | 300° |
| 2026-05-08 03:36 | 22.46820 | 88.76407 | 39930 ft | 432 kts | 300° |
| 2026-05-08 03:37 | 22.50311 | 88.71125 | 39935 ft | 430 kts | 300° |
| 2026-05-08 03:37 | 22.53787 | 88.65860 | 39935 ft | 430 kts | 300° |
| 2026-05-08 03:38 | 22.57238 | 88.60625 | 39936 ft | 430 kts | 300° |
| 2026-05-08 03:38 | 22.60713 | 88.55351 | 39939 ft | 430 kts | 300° |
| 2026-05-08 03:39 | 22.64182 | 88.50082 | 39936 ft | 430 kts | 300° |
| 2026-05-08 03:39 | 22.67269 | 88.45833 | 39943 ft | 436 kts | 308° |
| 2026-05-08 03:40 | 22.72020 | 88.41639 | 39934 ft | 444 kts | 318° |
| 2026-05-08 03:40 | 22.77150 | 88.37885 | 39939 ft | 446 kts | 320° |
| 2026-05-08 03:41 | 22.82321 | 88.34228 | 39938 ft | 446 kts | 320° |
| 2026-05-08 03:41 | 22.87509 | 88.30540 | 39939 ft | 445 kts | 320° |
| 2026-05-08 03:42 | 22.92684 | 88.26828 | 39938 ft | 445 kts | 319° |
| 2026-05-08 03:42 | 22.97816 | 88.23131 | 39939 ft | 445 kts | 319° |
| 2026-05-08 03:43 | 23.02978 | 88.19408 | 39935 ft | 445 kts | 319° |
| 2026-05-08 03:43 | 23.08134 | 88.15687 | 39936 ft | 445 kts | 319° |
| 2026-05-08 03:44 | 23.13296 | 88.11960 | 39943 ft | 445 kts | 319° |
| 2026-05-08 03:44 | 23.18455 | 88.08231 | 39946 ft | 445 kts | 319° |
| 2026-05-08 03:45 | 23.23605 | 88.04505 | 39941 ft | 444 kts | 319° |
| 2026-05-08 03:45 | 23.28717 | 88.00804 | 39942 ft | 444 kts | 319° |
| 2026-05-08 03:46 | 23.33861 | 87.97075 | 39937 ft | 444 kts | 319° |
| 2026-05-08 03:46 | 23.39014 | 87.93336 | 39948 ft | 444 kts | 319° |
| 2026-05-08 03:47 | 23.44159 | 87.89599 | 39951 ft | 444 kts | 318° |
| 2026-05-08 03:47 | 23.49300 | 87.85862 | 39946 ft | 444 kts | 318° |
| 2026-05-08 03:48 | 23.54439 | 87.82122 | 39947 ft | 444 kts | 318° |
| 2026-05-08 03:48 | 23.59546 | 87.78403 | 39946 ft | 444 kts | 318° |
| 2026-05-08 03:49 | 23.64684 | 87.74658 | 39949 ft | 444 kts | 318° |
| 2026-05-08 03:49 | 23.69822 | 87.70908 | 39947 ft | 444 kts | 318° |
| 2026-05-08 03:50 | 23.74959 | 87.67156 | 39970 ft | 444 kts | 318° |
| 2026-05-08 03:50 | 23.80097 | 87.63399 | 39953 ft | 444 kts | 318° |
| 2026-05-08 03:51 | 23.85209 | 87.59658 | 39950 ft | 445 kts | 318° |
| 2026-05-08 03:51 | 23.90357 | 87.55886 | 39954 ft | 445 kts | 318° |
| 2026-05-08 03:52 | 23.95495 | 87.52119 | 39955 ft | 445 kts | 318° |
| 2026-05-08 03:52 | 24.00616 | 87.48361 | 39955 ft | 445 kts | 318° |
| 2026-05-08 03:53 | 24.05753 | 87.44587 | 39975 ft | 445 kts | 318° |
| 2026-05-08 03:53 | 24.10890 | 87.40811 | 39954 ft | 443 kts | 318° |
| 2026-05-08 03:54 | 24.16009 | 87.37043 | 39965 ft | 443 kts | 318° |
| 2026-05-08 03:54 | 24.21087 | 87.33238 | 39956 ft | 441 kts | 317° |
| 2026-05-08 03:55 | 24.26095 | 87.29348 | 39965 ft | 440 kts | 316° |
| 2026-05-08 03:55 | 24.31070 | 87.25460 | 39963 ft | 439 kts | 316° |
| 2026-05-08 03:56 | 24.36052 | 87.21573 | 39961 ft | 439 kts | 316° |
| 2026-05-08 03:56 | 24.41008 | 87.17714 | 39963 ft | 438 kts | 316° |
| 2026-05-08 03:57 | 24.46007 | 87.13822 | 39963 ft | 437 kts | 316° |
| 2026-05-08 03:57 | 24.50936 | 87.09978 | 39967 ft | 437 kts | 316° |
| 2026-05-08 03:58 | 24.55898 | 87.06104 | 39963 ft | 437 kts | 316° |
| 2026-05-08 03:58 | 24.60859 | 87.02227 | 39961 ft | 437 kts | 316° |
| 2026-05-08 03:59 | 24.65816 | 86.98351 | 39956 ft | 437 kts | 316° |
| 2026-05-08 03:59 | 24.70773 | 86.94470 | 39968 ft | 437 kts | 316° |
| 2026-05-08 04:00 | 24.75700 | 86.90609 | 39957 ft | 437 kts | 316° |
| 2026-05-08 04:00 | 24.80653 | 86.86724 | 39960 ft | 437 kts | 316° |
| 2026-05-08 04:01 | 24.85604 | 86.82836 | 39961 ft | 437 kts | 316° |
| 2026-05-08 04:01 | 24.90523 | 86.78969 | 39956 ft | 436 kts | 316° |
| 2026-05-08 04:02 | 24.95479 | 86.75070 | 39963 ft | 436 kts | 316° |
| 2026-05-08 04:02 | 25.00423 | 86.71176 | 39963 ft | 436 kts | 316° |
| 2026-05-08 04:03 | 25.05354 | 86.67290 | 39954 ft | 434 kts | 316° |
| 2026-05-08 04:03 | 25.12720 | 86.61475 | 39954 ft | 434 kts | 315° |
| 2026-05-08 04:04 | 25.17631 | 86.57592 | 39955 ft | 434 kts | 315° |
| 2026-05-08 04:04 | 25.22505 | 86.53736 | 39954 ft | 433 kts | 315° |
| 2026-05-08 04:05 | 25.27395 | 86.49867 | 39956 ft | 431 kts | 315° |
| 2026-05-08 04:05 | 25.32270 | 86.46001 | 39950 ft | 431 kts | 315° |
| 2026-05-08 04:06 | 25.37150 | 86.42132 | 39951 ft | 431 kts | 315° |
| 2026-05-08 04:06 | 25.42032 | 86.38273 | 39950 ft | 431 kts | 315° |
| 2026-05-08 04:07 | 25.46886 | 86.34438 | 39950 ft | 431 kts | 315° |
| 2026-05-08 04:07 | 25.51768 | 86.30574 | 39946 ft | 431 kts | 315° |
| 2026-05-08 04:08 | 25.56653 | 86.26704 | 39951 ft | 431 kts | 315° |
| 2026-05-08 04:08 | 25.61526 | 86.22827 | 39957 ft | 431 kts | 315° |
| 2026-05-08 04:09 | 25.66380 | 86.18941 | 39946 ft | 430 kts | 315° |
| 2026-05-08 04:09 | 25.71234 | 86.15049 | 39946 ft | 430 kts | 315° |
| 2026-05-08 04:10 | 25.76089 | 86.11150 | 39723 ft | 435 kts | 315° |
| 2026-05-08 04:10 | 25.78545 | 86.09175 | 39180 ft | 437 kts | 315° |
| 2026-05-08 04:10 | 25.81019 | 86.07185 | 38474 ft | 441 kts | 314° |
| 2026-05-08 04:11 | 25.83523 | 86.05170 | 37646 ft | 446 kts | 315° |
| 2026-05-08 04:11 | 25.86049 | 86.03136 | 36849 ft | 450 kts | 315° |
| 2026-05-08 04:11 | 25.88582 | 86.01099 | 36268 ft | 449 kts | 315° |
| 2026-05-08 04:11 | 25.91078 | 85.99099 | 35811 ft | 446 kts | 315° |
| 2026-05-08 04:12 | 25.93597 | 85.97080 | 35322 ft | 444 kts | 315° |
| 2026-05-08 04:12 | 25.96094 | 85.95076 | 34808 ft | 442 kts | 315° |
| 2026-05-08 04:12 | 25.98589 | 85.93066 | 34195 ft | 443 kts | 315° |
| 2026-05-08 04:12 | 26.01092 | 85.91044 | 33519 ft | 444 kts | 315° |
| 2026-05-08 04:13 | 26.03594 | 85.89021 | 32872 ft | 444 kts | 315° |
| 2026-05-08 04:13 | 26.06092 | 85.87001 | 32236 ft | 444 kts | 316° |
| 2026-05-08 04:13 | 26.08588 | 85.84984 | 31590 ft | 444 kts | 316° |
| 2026-05-08 04:13 | 26.11059 | 85.82986 | 30947 ft | 445 kts | 317° |
| 2026-05-08 04:14 | 26.13559 | 85.80967 | 30475 ft | 441 kts | 317° |
| 2026-05-08 04:14 | 26.16034 | 85.78969 | 30010 ft | 437 kts | 318° |
| 2026-05-08 04:14 | 26.18486 | 85.76988 | 29449 ft | 433 kts | 318° |
| 2026-05-08 04:14 | 26.20912 | 85.75027 | 29004 ft | 428 kts | 318° |
| 2026-05-08 04:15 | 26.23314 | 85.73085 | 28494 ft | 424 kts | 318° |
| 2026-05-08 04:15 | 26.25689 | 85.71160 | 28002 ft | 420 kts | 318° |
| 2026-05-08 04:15 | 26.28005 | 85.69281 | 27550 ft | 415 kts | 318° |
| 2026-05-08 04:15 | 26.30329 | 85.67394 | 27098 ft | 411 kts | 318° |
| 2026-05-08 04:16 | 26.32647 | 85.65512 | 26618 ft | 408 kts | 319° |
| 2026-05-08 04:16 | 26.34937 | 85.63655 | 26121 ft | 405 kts | 319° |
| 2026-05-08 04:16 | 26.37209 | 85.61815 | 25643 ft | 402 kts | 319° |
| 2026-05-08 04:16 | 26.39464 | 85.59991 | 25188 ft | 399 kts | 319° |
| 2026-05-08 04:17 | 26.41707 | 85.58177 | 24721 ft | 397 kts | 319° |
| 2026-05-08 04:17 | 26.43934 | 85.56376 | 24266 ft | 394 kts | 319° |
| 2026-05-08 04:17 | 26.46148 | 85.54584 | 23814 ft | 392 kts | 319° |
| 2026-05-08 04:17 | 26.48347 | 85.52805 | 23327 ft | 389 kts | 319° |
| 2026-05-08 04:18 | 26.50500 | 85.51060 | 22861 ft | 386 kts | 319° |
| 2026-05-08 04:18 | 26.52657 | 85.49311 | 22406 ft | 382 kts | 320° |
| 2026-05-08 04:18 | 26.54797 | 85.47575 | 21952 ft | 378 kts | 320° |
| 2026-05-08 04:18 | 26.56916 | 85.45855 | 21523 ft | 375 kts | 320° |
| 2026-05-08 04:19 | 26.59020 | 85.44146 | 21094 ft | 371 kts | 320° |
| 2026-05-08 04:19 | 26.61100 | 85.42455 | 20668 ft | 369 kts | 320° |
| 2026-05-08 04:19 | 26.63167 | 85.40774 | 20236 ft | 365 kts | 321° |
| 2026-05-08 04:19 | 26.65216 | 85.39107 | 19813 ft | 363 kts | 321° |
| 2026-05-08 04:20 | 26.67245 | 85.37456 | 19380 ft | 360 kts | 321° |
| 2026-05-08 04:20 | 26.69264 | 85.35813 | 18967 ft | 358 kts | 321° |
| 2026-05-08 04:20 | 26.71269 | 85.34182 | 18549 ft | 355 kts | 321° |
| 2026-05-08 04:20 | 26.73262 | 85.32560 | 18112 ft | 353 kts | 321° |
| 2026-05-08 04:21 | 26.75250 | 85.30952 | 17656 ft | 351 kts | 321° |
| 2026-05-08 04:21 | 26.77226 | 85.29371 | 17223 ft | 347 kts | 322° |
| 2026-05-08 04:21 | 26.79182 | 85.27811 | 16817 ft | 344 kts | 322° |
| 2026-05-08 04:21 | 26.81094 | 85.26286 | 16418 ft | 341 kts | 322° |
| 2026-05-08 04:22 | 26.83018 | 85.24751 | 16010 ft | 338 kts | 322° |
| 2026-05-08 04:22 | 26.84924 | 85.23229 | 15591 ft | 336 kts | 322° |
| 2026-05-08 04:22 | 26.86822 | 85.21714 | 15175 ft | 334 kts | 322° |
| 2026-05-08 04:22 | 26.88708 | 85.20207 | 14772 ft | 332 kts | 322° |
| 2026-05-08 04:23 | 26.90580 | 85.18709 | 14378 ft | 330 kts | 322° |
| 2026-05-08 04:23 | 26.92448 | 85.17215 | 13974 ft | 328 kts | 322° |
| 2026-05-08 04:23 | 26.94305 | 85.15730 | 13537 ft | 327 kts | 322° |
| 2026-05-08 04:23 | 26.96146 | 85.14257 | 13128 ft | 324 kts | 322° |
| 2026-05-08 04:24 | 26.97954 | 85.12811 | 12956 ft | 313 kts | 323° |
| 2026-05-08 04:24 | 26.99698 | 85.11416 | 12749 ft | 305 kts | 322° |
| 2026-05-08 04:24 | 27.01420 | 85.10036 | 12375 ft | 304 kts | 322° |
| 2026-05-08 04:24 | 27.03147 | 85.08719 | 12040 ft | 304 kts | 328° |
| 2026-05-08 04:25 | 27.05119 | 85.07864 | 11689 ft | 306 kts | 348° |
| 2026-05-08 04:25 | 27.07236 | 85.07863 | 11341 ft | 306 kts | 11° |
| 2026-05-08 04:25 | 27.09265 | 85.08571 | 11001 ft | 305 kts | 20° |
| 2026-05-08 04:25 | 27.11213 | 85.09447 | 10804 ft | 296 kts | 22° |
| 2026-05-08 04:26 | 27.13084 | 85.10309 | 10703 ft | 285 kts | 22° |
| 2026-05-08 04:26 | 27.14914 | 85.11148 | 10568 ft | 285 kts | 22° |
| 2026-05-08 04:26 | 27.16783 | 85.11999 | 10526 ft | 293 kts | 22° |
| 2026-05-08 04:26 | 27.18692 | 85.12862 | 10542 ft | 296 kts | 22° |
| 2026-05-08 04:27 | 27.19957 | 85.13432 | 10541 ft | 296 kts | 22° |
| 2026-05-08 04:27 | 27.22494 | 85.14574 | 10541 ft | 296 kts | 22° |
| 2026-05-08 04:27 | 27.24375 | 85.15419 | 10535 ft | 283 kts | 22° |
| 2026-05-08 04:27 | 27.25571 | 85.15956 | 10536 ft | 275 kts | 22° |
| 2026-05-08 04:28 | 27.27343 | 85.16754 | 10562 ft | 274 kts | 22° |
| 2026-05-08 04:28 | 27.29118 | 85.17551 | 10563 ft | 274 kts | 22° |
| 2026-05-08 04:28 | 27.30908 | 85.18291 | 10561 ft | 274 kts | 19° |
| 2026-05-08 04:28 | 27.32697 | 85.18974 | 10395 ft | 270 kts | 19° |
| 2026-05-08 04:29 | 27.34478 | 85.19642 | 10045 ft | 270 kts | 19° |
| 2026-05-08 04:29 | 27.36256 | 85.20308 | 9716 ft | 269 kts | 19° |
| 2026-05-08 04:29 | 27.38032 | 85.20974 | 9386 ft | 267 kts | 19° |
| 2026-05-08 04:29 | 27.39794 | 85.21634 | 9057 ft | 266 kts | 19° |
| 2026-05-08 04:30 | 27.41548 | 85.22290 | 8817 ft | 266 kts | 19° |
| 2026-05-08 04:30 | 27.43307 | 85.22949 | 8786 ft | 266 kts | 19° |
| 2026-05-08 04:30 | 27.45044 | 85.23602 | 8788 ft | 266 kts | 19° |
| 2026-05-08 04:30 | 27.46809 | 85.24264 | 8788 ft | 267 kts | 19° |
| 2026-05-08 04:31 | 27.48628 | 85.24538 | 8622 ft | 266 kts | 353° |
| 2026-05-08 04:31 | 27.50446 | 85.24118 | 8282 ft | 266 kts | 349° |
| 2026-05-08 04:31 | 27.52273 | 85.23858 | 8027 ft | 262 kts | 1° |
| 2026-05-08 04:31 | 27.54031 | 85.24128 | 7925 ft | 247 kts | 17° |
| 2026-05-08 04:32 | 27.55549 | 85.24873 | 7774 ft | 231 kts | 32° |
| 2026-05-08 04:32 | 27.56802 | 85.25881 | 7587 ft | 217 kts | 39° |
| 2026-05-08 04:32 | 27.57940 | 85.26952 | 7305 ft | 208 kts | 44° |
| 2026-05-08 04:32 | 27.58912 | 85.28129 | 7023 ft | 203 kts | 53° |
| 2026-05-08 04:33 | 27.59752 | 85.29412 | 6727 ft | 203 kts | 54° |
| 2026-05-08 04:33 | 27.60611 | 85.30667 | 6520 ft | 202 kts | 50° |
| 2026-05-08 04:33 | 27.61592 | 85.31775 | 6296 ft | 196 kts | 41° |
| 2026-05-08 04:33 | 27.62680 | 85.32647 | 6043 ft | 187 kts | 31° |
| 2026-05-08 04:34 | 27.63840 | 85.33282 | 5605 ft | 184 kts | 22° |
| 2026-05-08 04:34 | 27.64997 | 85.33813 | 5214 ft | 172 kts | 21° |
| 2026-05-08 04:34 | 27.66061 | 85.34267 | 4914 ft | 160 kts | 21° |
| 2026-05-08 04:34 | 27.67064 | 85.34687 | 4664 ft | 148 kts | 23° |
| 2026-05-08 04:35 | 27.67971 | 85.35132 | 4472 ft | 137 kts | 26° |
| 2026-05-08 04:35 | 27.68827 | 85.35533 | 4337 ft | 127 kts | 22° |
| 2026-05-08 04:35 | 27.69499 | 85.35840 | 4353 ft | 76 kts | 21° |
| 2026-05-08 04:35 | 27.69870 | 85.36008 | 4370 ft | 28 kts | 22° |
| 2026-05-08 04:36 | 27.70005 | 85.36070 | 4369 ft | 20 kts | 23° |
| 2026-05-08 04:36 | 27.70122 | 85.36116 | 4367 ft | 16 kts | 6° |
| 2026-05-08 04:36 | 27.70197 | 85.36067 | 4381 ft | 10 kts | 281° |
| 2026-05-08 04:36 | 27.70158 | 85.36023 | 4361 ft | 9 kts | 203° |
| 2026-05-08 04:37 | 27.70087 | 85.35989 | 4380 ft | 13 kts | 202° |
| 2026-05-08 04:37 | 27.70014 | 85.35948 | 4363 ft | 10 kts | 232° |
| 2026-05-08 04:37 | 27.70027 | 85.35877 | 4361 ft | 10 kts | 291° |
| 2026-05-08 04:37 | 27.70033 | 85.35859 | 4364 ft | 1 kts | 292° |
| 2026-05-08 04:38 | 27.70033 | 85.35858 | 4379 ft | 0 kts | 292° |